createdAt,value
2023-04-19T00:03:48.098Z,29.27
2023-04-19T00:09:50.987Z,29.27
2023-04-19T00:14:25.701Z,29.24
2023-04-19T00:19:33.215Z,29.14
2023-04-19T00:24:40.875Z,29.09
2023-04-19T00:29:49.058Z,29.08
2023-04-19T00:35:05.686Z,29.03
2023-04-19T00:40:13.907Z,28.98
2023-04-19T00:45:34.517Z,28.91
2023-04-19T00:51:45.500Z,28.82
2023-04-19T00:55:55.040Z,28.78
2023-04-19T01:01:40.575Z,28.77
2023-04-19T01:07:18.004Z,28.71
2023-04-19T01:11:45.318Z,28.66
2023-04-19T01:16:53.246Z,28.59
2023-04-19T01:22:11.991Z,28.59
2023-04-19T01:27:24.231Z,28.57
2023-04-19T01:32:38.229Z,28.53
2023-04-19T01:37:45.608Z,28.45
2023-04-19T01:43:28.154Z,28.38
2023-04-19T01:48:43.987Z,28.36
2023-04-19T01:54:00.163Z,28.33
2023-04-19T01:59:06.551Z,28.27
2023-04-19T02:04:49.109Z,28.22
2023-04-19T02:09:56.804Z,28.21
2023-04-19T02:15:44.502Z,28.16
2023-04-19T02:21:26.910Z,28.11
2023-04-19T02:26:34.445Z,28.05
2023-04-19T02:31:49.567Z,28.01
2023-04-19T02:36:57.136Z,27.98
2023-04-19T02:42:44.771Z,27.92
2023-04-19T02:47:52.407Z,27.90
2023-04-19T02:53:16.523Z,27.86
2023-04-19T02:58:25.442Z,27.85
2023-04-19T03:03:39.719Z,27.82
2023-04-19T03:08:53.594Z,27.77
2023-04-19T03:14:01.683Z,27.74
2023-04-19T03:19:29.679Z,27.73
2023-04-19T03:25:08.116Z,27.69
2023-04-19T03:30:15.950Z,27.63
2023-04-19T03:35:31.376Z,27.61
2023-04-19T03:41:21.486Z,27.60
2023-04-19T03:46:40.285Z,27.58
2023-04-19T03:52:22.639Z,27.54
2023-04-19T03:57:37.623Z,27.50
2023-04-19T04:02:42.286Z,27.50
2023-04-19T04:08:05.010Z,27.46
2023-04-19T04:13:12.673Z,27.42
2023-04-19T04:18:41.474Z,27.41
2023-04-19T04:23:34.276Z,27.38
2023-04-19T04:28:42.043Z,27.36
2023-04-19T04:33:49.829Z,27.29
2023-04-19T04:39:35.098Z,27.27
2023-04-19T04:44:51.816Z,27.26
2023-04-19T04:50:05.811Z,27.26
2023-04-19T04:55:22.853Z,27.22
2023-04-19T05:00:45.665Z,27.21
2023-04-19T05:05:53.418Z,27.18
2023-04-19T05:11:02.876Z,27.16
2023-04-19T05:17:04.733Z,27.12
2023-04-19T05:21:30.486Z,27.11
2023-04-19T05:26:55.414Z,27.08
2023-04-19T05:32:08.708Z,27.09
2023-04-19T05:37:26.703Z,27.06
2023-04-19T05:42:37.569Z,27.02
2023-04-19T05:47:51.887Z,26.99
2023-04-19T05:56:11.062Z,27.02
2023-04-19T05:58:45.389Z,27.00
2023-04-19T06:03:53.267Z,26.93
2023-04-19T06:09:35.618Z,26.88
2023-04-19T06:14:43.109Z,27.90
2023-04-19T06:19:50.391Z,28.61
2023-04-19T06:24:57.673Z,28.72
2023-04-19T06:30:04.945Z,29.03
2023-04-19T06:35:12.258Z,29.12
2023-04-19T06:40:19.311Z,29.36
2023-04-19T06:45:26.808Z,29.52
2023-04-19T06:50:34.051Z,29.59
2023-04-19T06:55:41.306Z,29.73
2023-04-19T07:00:48.502Z,29.76
2023-04-19T07:05:55.801Z,29.87
2023-04-19T07:11:03.047Z,30.04
2023-04-19T07:16:10.465Z,30.04
2023-04-19T07:21:17.651Z,30.00
2023-04-19T07:26:24.925Z,30.11
2023-04-19T07:31:32.203Z,30.22
2023-04-19T07:36:39.598Z,30.11
2023-04-19T07:41:46.662Z,30.03
2023-04-19T07:46:54.043Z,30.14
2023-04-19T07:52:01.193Z,30.15
2023-04-19T07:57:08.528Z,30.10
2023-04-19T08:02:15.833Z,30.00
2023-04-19T08:07:23.347Z,30.02
2023-04-19T08:12:37.318Z,30.16
2023-04-19T08:17:42.073Z,30.19
2023-04-19T08:22:45.357Z,30.18
2023-04-19T08:27:52.521Z,30.17
2023-04-19T08:32:59.840Z,29.99
2023-04-19T08:38:07.101Z,30.18
2023-04-19T08:43:14.426Z,30.25
2023-04-19T08:48:21.854Z,30.18
2023-04-19T08:53:29.298Z,30.15
2023-04-19T08:58:54.946Z,30.34
2023-04-19T09:04:00.551Z,29.87
2023-04-19T09:08:58.337Z,29.80
2023-04-19T09:14:16.762Z,29.65
2023-04-19T09:19:25.605Z,29.57
2023-04-19T09:24:57.194Z,29.50
2023-04-19T09:29:47.173Z,29.44
2023-04-19T09:35:06.117Z,29.51
2023-04-19T09:40:20.245Z,29.37
2023-04-19T09:45:32.689Z,29.47
2023-04-19T09:51:15.963Z,29.47
2023-04-19T09:56:29.467Z,29.60
2023-04-19T10:01:36.936Z,30.02
2023-04-19T10:06:58.820Z,29.83
2023-04-19T10:11:54.462Z,30.48
2023-04-19T10:16:59.634Z,30.64
2023-04-19T10:22:07.157Z,30.75
2023-04-19T10:27:14.703Z,30.58
2023-04-19T10:32:22.125Z,31.30
2023-04-19T10:37:29.543Z,30.59
2023-04-19T10:42:37.534Z,31.14
2023-04-19T10:47:51.516Z,30.82
2023-04-19T10:53:04.391Z,31.08
2023-04-19T10:58:12.245Z,30.70
2023-04-19T11:03:20.082Z,30.68
2023-04-19T11:08:27.648Z,30.56
2023-04-19T11:13:38.018Z,31.46
2023-04-19T11:18:45.837Z,31.43
2023-04-19T11:23:53.541Z,31.17
2023-04-19T11:29:01.096Z,31.01
2023-04-19T11:34:09.543Z,32.10
2023-04-19T11:39:17.200Z,32.35
2023-04-19T11:44:24.861Z,32.22
2023-04-19T11:49:32.347Z,33.00
2023-04-19T11:54:40.053Z,32.98
2023-04-19T11:59:47.543Z,32.49
2023-04-19T12:04:58.419Z,33.27
2023-04-19T12:10:05.722Z,33.26
2023-04-19T12:15:17.053Z,33.21
2023-04-19T12:20:24.422Z,32.72
2023-04-19T12:25:31.822Z,32.91
2023-04-19T12:30:39.608Z,32.61
2023-04-19T12:35:46.874Z,33.20
2023-04-19T12:40:54.161Z,33.45
2023-04-19T12:46:01.891Z,32.95
2023-04-19T12:51:09.043Z,33.08
2023-04-19T12:56:16.306Z,33.48
2023-04-19T13:01:23.630Z,34.01
2023-04-19T13:06:30.647Z,34.46
2023-04-19T13:11:37.950Z,35.01
2023-04-19T13:16:45.259Z,35.08
2023-04-19T13:21:52.441Z,34.96
2023-04-19T13:26:59.632Z,34.48
2023-04-19T13:32:06.820Z,34.86
2023-04-19T13:37:13.973Z,34.82
2023-04-19T13:42:21.242Z,33.91
2023-04-19T13:47:28.632Z,33.95
2023-04-19T13:52:35.845Z,34.26
2023-04-19T13:57:43.165Z,34.31
2023-04-19T14:02:52.345Z,34.47
2023-04-19T14:07:57.701Z,34.42
2023-04-19T14:13:04.880Z,35.10
2023-04-19T14:18:12.174Z,34.48
2023-04-19T14:23:19.264Z,34.87
2023-04-19T14:28:26.531Z,34.24
2023-04-19T14:33:33.810Z,34.04
2023-04-19T14:38:41.087Z,33.85
2023-04-19T14:43:48.315Z,35.16
2023-04-19T14:48:55.511Z,34.31
2023-04-19T14:54:02.765Z,34.65
2023-04-19T14:59:09.971Z,34.36
2023-04-19T15:04:17.511Z,34.27
2023-04-19T15:09:24.675Z,34.07
2023-04-19T15:14:31.796Z,34.41
2023-04-19T15:19:39.006Z,34.60
2023-04-19T15:24:46.165Z,35.13
2023-04-19T15:29:53.351Z,34.76
2023-04-19T15:35:00.589Z,34.77
2023-04-19T15:40:07.752Z,34.90
2023-04-19T15:45:14.998Z,34.75
2023-04-19T15:50:22.203Z,34.71
2023-04-19T15:55:29.426Z,34.82
2023-04-19T16:00:36.733Z,34.89
2023-04-19T16:05:44.816Z,34.75
2023-04-19T16:10:52.155Z,34.98
2023-04-19T16:15:59.322Z,35.13
2023-04-19T16:21:06.481Z,34.10
2023-04-19T16:26:13.745Z,33.70
2023-04-19T16:31:21.103Z,33.23
2023-04-19T16:36:28.196Z,33.00
2023-04-19T16:41:35.377Z,32.80
2023-04-19T16:46:42.654Z,32.68
2023-04-19T16:51:50.189Z,32.51
2023-04-19T16:56:57.421Z,32.40
2023-04-19T17:02:05.023Z,32.22
2023-04-19T17:07:12.185Z,32.15
2023-04-19T17:12:19.421Z,32.39
2023-04-19T17:17:26.724Z,31.96
2023-04-19T17:22:33.997Z,32.20
2023-04-19T17:27:41.220Z,32.11
2023-04-19T17:32:48.758Z,32.13
2023-04-19T17:37:56.404Z,32.38
2023-04-19T17:43:04.184Z,32.53
2023-04-19T17:48:11.586Z,32.68
2023-04-19T17:53:19.096Z,32.34
2023-04-19T17:58:26.808Z,32.58
2023-04-19T18:03:34.539Z,32.65
2023-04-19T18:08:42.295Z,32.67
2023-04-19T18:13:49.748Z,32.77
2023-04-19T18:18:57.080Z,32.65
2023-04-19T18:24:04.616Z,32.66
2023-04-19T18:29:13.385Z,32.48
2023-04-19T18:34:21.124Z,32.27
2023-04-19T18:39:29.022Z,32.44
2023-04-19T18:49:52.742Z,32.11
2023-04-19T18:54:51.403Z,32.16
2023-04-19T18:59:58.778Z,31.93
2023-04-19T19:05:07.267Z,31.84
2023-04-19T19:10:18.911Z,31.95
2023-04-19T19:15:22.039Z,31.63
2023-04-19T19:20:29.656Z,31.51
2023-04-19T19:25:37.150Z,31.44
2023-04-19T19:30:44.517Z,31.25
2023-04-19T19:35:52.196Z,31.15
2023-04-19T19:41:49.038Z,31.10
2023-04-19T19:46:08.433Z,31.05
2023-04-19T19:51:47.640Z,30.92
2023-04-19T19:56:24.531Z,30.75
2023-04-19T20:01:31.884Z,30.65
2023-04-19T20:07:24.876Z,30.66
2023-04-19T20:11:46.956Z,30.58
2023-04-19T20:16:54.650Z,30.65
2023-04-19T20:22:02.357Z,30.60
2023-04-19T20:27:09.969Z,30.40
2023-04-19T20:32:17.762Z,30.46
2023-04-19T20:37:25.406Z,30.23
2023-04-19T20:42:33.154Z,29.95
2023-04-19T20:47:40.558Z,29.81
2023-04-19T20:52:47.995Z,29.83
2023-04-19T20:57:55.507Z,29.65
2023-04-19T21:03:03.072Z,29.60
2023-04-19T21:08:10.185Z,29.51
2023-04-19T21:13:17.468Z,29.45
2023-04-19T21:18:24.723Z,29.39
2023-04-19T21:23:32.227Z,29.30
2023-04-19T21:28:39.549Z,29.38
2023-04-19T21:33:46.794Z,29.32
2023-04-19T21:38:53.969Z,29.46
2023-04-19T21:44:01.311Z,29.34
2023-04-19T21:49:08.650Z,29.43
2023-04-19T21:54:26.474Z,29.42
2023-04-19T21:59:23.151Z,29.33
2023-04-19T22:04:30.290Z,29.61
2023-04-19T22:09:37.568Z,29.24
2023-04-19T22:14:44.814Z,29.23
2023-04-19T22:19:52.061Z,29.14
2023-04-19T22:24:59.541Z,29.01
2023-04-19T22:30:06.751Z,29.03
2023-04-19T22:35:13.921Z,28.93
2023-04-19T22:40:21.132Z,29.00
2023-04-19T22:45:28.437Z,28.91
2023-04-19T22:50:35.771Z,28.76
2023-04-19T22:55:43.032Z,28.75
2023-04-19T23:00:50.251Z,28.84
2023-04-19T23:05:57.482Z,28.78
2023-04-19T23:11:04.730Z,28.79
2023-04-19T23:16:12.112Z,28.81
2023-04-19T23:21:19.306Z,28.61
2023-04-19T23:26:26.563Z,28.60
2023-04-19T23:31:34.157Z,28.23
2023-04-19T23:36:46.282Z,28.13
2023-04-19T23:42:09.963Z,28.05
2023-04-19T23:47:24.254Z,27.99
2023-04-19T23:52:31.847Z,27.92
2023-04-19T23:57:40.936Z,27.93
